Time;durP1;ratioP1;P1;durP2;ratioP2;P2;SDS_P1;SDS_P2;PMS_P1;PMS_P2;Temp;Humidity;BMP_temperature;BMP_pressure;BME280_temperature;BME280_humidity;BME280_pressure;Samples;Min_cycle;Max_cycle;Signal;HPM_P1;HPM_P2
2022/09/02 00:02:00;;;;;;;;;;;;;;;21.22;60.38;101149.31;4420060;32;19950;-67
2022/09/02 00:04:26;;;;;;;;;;;;;;;21.27;60.30;101145.72;4417946;32;20033;-68
2022/09/02 00:06:53;;;;;;;;;;;;;;;21.33;60.27;101150.22;4416640;32;19964;-68
2022/09/02 00:09:21;;;;;;;;;;;;;;;21.44;59.83;101149.56;4417795;32;19966;-68
2022/09/02 00:11:47;;;;;;;;;;;;;;;21.44;59.72;101144.63;4417118;32;20042;-68
2022/09/02 00:14:16;;;;;;;;;;;;;;;21.44;60.04;101141.75;4416324;32;19961;-68
2022/09/02 00:16:49;;;;;;;;;;;;;;;21.46;59.55;101139.19;4417106;32;19968;-68
2022/09/02 00:19:16;;;;;;;;;;;;;;;21.41;59.81;101136.25;4421202;32;20015;-68
2022/09/02 00:21:41;;;;;;;;;;;;;;;21.42;60.13;101132.88;4420380;32;19994;-68
2022/09/02 00:24:07;;;;;;;;;;;;;;;21.41;59.87;101134.19;4418921;32;20001;-69
2022/09/02 00:26:32;;;;;;;;;;;;;;;21.46;59.47;101135.53;4417397;32;20028;-68
2022/09/02 00:29:00;;;;;;;;;;;;;;;21.56;59.37;101129.13;4419218;32;19973;-67
2022/09/02 00:31:27;;;;;;;;;;;;;;;21.51;59.56;101137.69;4419214;32;20035;-67
2022/09/02 00:33:53;;;;;;;;;;;;;;;21.50;59.06;101136.88;4421216;32;19964;-68
2022/09/02 00:36:19;;;;;;;;;;;;;;;21.47;59.46;101125.63;4419613;32;20366;-68
2022/09/02 00:38:44;;;;;;;;;;;;;;;21.46;59.47;101124.06;4417027;32;20007;-68
2022/09/02 00:41:11;;;;;;;;;;;;;;;21.52;59.28;101122.06;4417458;32;19963;-67
2022/09/02 00:46:16;;;;;;;;;;;;;;;21.78;58.98;101111.37;3952944;32;15834608;-68
2022/09/02 00:48:45;;;;;;;;;;;;;;;21.78;58.98;101111.37;4438583;32;19969;-68
2022/09/02 00:51:10;;;;;;;;;;;;;;;21.43;59.87;101119.34;4437388;32;20025;-69
2022/09/02 00:53:38;;;;;;;;;;;;;;;21.44;59.72;101109.47;4440463;32;20045;-68
2022/09/02 00:56:07;;;;;;;;;;;;;;;21.21;60.09;101110.53;4439902;32;19992;-69
2022/09/02 00:58:34;;;;;;;;;;;;;;;20.89;61.68;101101.00;4439442;32;20327;-68
2022/09/02 01:00:59;;;;;;;;;;;;;;;21.08;60.97;101105.16;4439053;32;19957;-68
2022/09/02 01:03:26;;;;;;;;;;;;;;;21.09;60.98;101091.66;4438341;32;19985;-69
2022/09/02 01:05:52;;;;;;;;;;;;;;;21.09;60.86;101089.59;4434864;32;20295;-68
2022/09/02 01:08:20;;;;;;;;;;;;;;;21.26;60.54;101089.78;4438244;32;19996;-68
2022/09/02 01:10:46;;;;;;;;;;;;;;;21.22;60.65;101080.59;4436574;32;20451;-69
2022/09/02 01:13:14;;;;;;;;;;;;;;;21.27;60.96;101079.88;4437724;32;19980;-68
2022/09/02 01:15:43;;;;;;;;;;;;;;;21.34;60.54;101088.03;4438041;32;19967;-70
2022/09/02 01:18:12;;;;;;;;;;;;;;;21.31;60.41;101081.25;4438322;32;20003;-69
2022/09/02 01:20:37;;;;;;;;;;;;;;;21.41;60.29;101081.84;4436581;32;20078;-68
2022/09/02 01:23:03;;;;;;;;;;;;;;;21.36;60.13;101068.28;4439282;32;20398;-70
2022/09/02 01:25:30;;;;;;;;;;;;;;;21.46;60.15;101058.22;4438748;32;19997;-68
2022/09/02 01:28:00;;;;;;;;;;;;;;;21.35;60.05;101069.53;4437126;32;19985;-68
2022/09/02 01:30:27;;;;;;;;;;;;;;;21.41;60.12;101059.72;4436949;32;20298;-68
2022/09/02 01:32:52;;;;;;;;;;;;;;;21.38;60.41;101057.09;4440498;32;19959;-68
2022/09/02 01:35:18;;;;;;;;;;;;;;;21.39;60.16;101056.56;4437918;32;20196;-68
2022/09/02 01:37:44;;;;;;;;;;;;;;;21.36;60.47;101051.88;4438228;32;19962;-68
2022/09/02 01:40:11;;;;;;;;;;;;;;;21.33;60.55;101063.56;4437816;32;19979;-68
2022/09/02 01:42:37;;;;;;;;;;;;;;;21.32;60.42;101061.97;4437965;32;20007;-68
2022/09/02 01:45:03;;;;;;;;;;;;;;;21.19;60.89;101055.84;4438518;32;19968;-68
2022/09/02 01:47:29;;;;;;;;;;;;;;;21.24;60.55;101055.13;4435076;32;21101;-66
2022/09/02 01:49:58;;;;;;;;;;;;;;;21.18;60.78;101051.44;4436669;32;19962;-68
2022/09/02 01:52:25;;;;;;;;;;;;;;;21.11;61.09;101046.16;4434824;32;20438;-69
2022/09/02 01:54:51;;;;;;;;;;;;;;;21.19;60.86;101053.00;4437386;32;19964;-68
2022/09/02 01:57:17;;;;;;;;;;;;;;;21.16;61.22;101045.41;4429137;32;19980;-68
2022/09/02 01:59:44;;;;;;;;;;;;;;;21.16;61.13;101043.34;4426308;32;20415;-68
2022/09/02 02:02:11;;;;;;;;;;;;;;;20.92;61.97;101039.12;4428040;32;20005;-68
2022/09/02 02:04:36;;;;;;;;;;;;;;;21.03;61.53;101039.28;4428039;32;20583;-68
2022/09/02 02:07:02;;;;;;;;;;;;;;;20.86;61.88;101021.91;4427349;32;19989;-68
2022/09/02 02:09:27;;;;;;;;;;;;;;;20.90;62.08;101028.19;4424015;32;20255;-68
2022/09/02 02:11:53;;;;;;;;;;;;;;;20.92;61.87;101022.75;4425738;32;20000;-68
2022/09/02 02:14:18;;;;;;;;;;;;;;;20.85;62.19;101022.41;4427109;32;19986;-66
2022/09/02 02:16:45;;;;;;;;;;;;;;;21.02;61.88;101021.31;4428763;32;20001;-68
2022/09/02 02:19:10;;;;;;;;;;;;;;;20.97;61.76;101015.56;4427573;32;19961;-69
2022/09/02 02:21:35;;;;;;;;;;;;;;;20.91;62.33;101018.34;4425541;32;20265;-68
2022/09/02 02:24:01;;;;;;;;;;;;;;;20.83;62.27;101014.31;4428785;32;20342;-67
2022/09/02 02:26:27;;;;;;;;;;;;;;;20.79;62.03;101007.25;4426856;32;20012;-68
2022/09/02 02:28:53;;;;;;;;;;;;;;;20.93;62.26;101010.00;4425365;32;20324;-68
2022/09/02 02:31:19;;;;;;;;;;;;;;;20.83;62.54;101008.59;4427357;32;19991;-67
2022/09/02 02:33:44;;;;;;;;;;;;;;;20.89;62.37;101006.59;4428659;32;21182;-67
2022/09/02 02:36:10;;;;;;;;;;;;;;;20.99;62.05;100990.84;4428808;32;20006;-68
2022/09/02 02:38:36;;;;;;;;;;;;;;;20.95;62.15;100990.31;4423857;32;19985;-67
2022/09/02 02:41:03;;;;;;;;;;;;;;;21.01;61.94;100988.28;4424280;32;20387;-67
2022/09/02 02:43:29;;;;;;;;;;;;;;;20.97;61.86;100995.53;4428836;32;19973;-67
2022/09/02 02:45:54;;;;;;;;;;;;;;;20.98;62.18;100980.72;4427632;32;20012;-67
2022/09/02 02:48:20;;;;;;;;;;;;;;;20.95;62.47;100986.66;4424670;32;19954;-67
2022/09/02 02:50:46;;;;;;;;;;;;;;;20.91;62.56;100978.28;4426057;32;19996;-68
2022/09/02 02:53:12;;;;;;;;;;;;;;;21.00;62.18;100981.00;4424401;32;20319;-69
2022/09/02 02:55:38;;;;;;;;;;;;;;;20.84;62.58;100981.59;4428220;32;19999;-67
2022/09/02 02:58:05;;;;;;;;;;;;;;;20.84;62.42;100984.44;4426043;32;19965;-67
2022/09/02 03:00:31;;;;;;;;;;;;;;;20.77;62.72;100984.88;4426699;32;19957;-68
2022/09/02 03:02:58;;;;;;;;;;;;;;;20.88;62.51;100982.16;4425638;32;20308;-67
2022/09/02 03:05:25;;;;;;;;;;;;;;;20.92;62.78;100976.97;4426242;32;19956;-67
2022/09/02 03:07:50;;;;;;;;;;;;;;;20.83;62.89;100980.00;4425147;32;20779;-67
2022/09/02 03:10:16;;;;;;;;;;;;;;;20.85;62.89;100982.34;4426727;32;19968;-67
2022/09/02 03:12:46;;;;;;;;;;;;;;;20.84;63.08;100975.87;4426537;32;19964;-67
2022/09/02 03:15:12;;;;;;;;;;;;;;;20.75;63.02;100980.94;4428342;32;20024;-68
2022/09/02 03:17:38;;;;;;;;;;;;;;;20.64;64.16;100973.03;4426503;32;20381;-67
2022/09/02 03:20:04;;;;;;;;;;;;;;;20.69;63.70;100966.59;4427522;32;19993;-67
2022/09/02 03:22:30;;;;;;;;;;;;;;;20.76;63.82;100969.00;4425906;32;19980;-67
2022/09/02 03:24:55;;;;;;;;;;;;;;;20.82;63.59;100967.00;4426360;32;19961;-67
2022/09/02 03:27:21;;;;;;;;;;;;;;;20.59;64.09;100959.44;4427402;32;19981;-67
2022/09/02 03:29:46;;;;;;;;;;;;;;;20.42;64.95;100964.19;4427890;32;19953;-67
2022/09/02 03:32:11;;;;;;;;;;;;;;;20.45;65.08;100957.47;4425074;32;19949;-68
2022/09/02 03:34:37;;;;;;;;;;;;;;;20.49;64.81;100960.13;4427374;32;20001;-67
2022/09/02 03:37:02;;;;;;;;;;;;;;;20.29;65.62;100951.53;4427833;32;19953;-67
2022/09/02 03:39:28;;;;;;;;;;;;;;;20.44;65.56;100958.78;4424327;32;20046;-68
2022/09/02 03:41:54;;;;;;;;;;;;;;;20.42;65.18;100958.47;4424920;32;19949;-67
2022/09/02 03:44:19;;;;;;;;;;;;;;;20.50;65.48;100962.47;4425320;32;20450;-67
2022/09/02 03:46:45;;;;;;;;;;;;;;;20.39;65.87;100950.09;4426422;32;19957;-68
2022/09/02 03:49:10;;;;;;;;;;;;;;;20.48;65.55;100959.31;4425757;32;19972;-67
2022/09/02 03:51:38;;;;;;;;;;;;;;;20.52;65.85;100954.16;4425899;32;20007;-67
2022/09/02 03:54:05;;;;;;;;;;;;;;;20.50;65.85;100950.25;4425822;32;20483;-67
2022/09/02 03:56:31;;;;;;;;;;;;;;;20.44;65.60;100955.91;4425732;32;20026;-67
2022/09/02 03:58:56;;;;;;;;;;;;;;;20.49;65.73;100948.69;4426288;32;20001;-68
2022/09/02 04:01:23;;;;;;;;;;;;;;;20.35;65.84;100935.25;4422099;32;19971;-67
2022/09/02 04:03:49;;;;;;;;;;;;;;;20.43;65.48;100934.31;4424907;32;20008;-67
2022/09/02 04:06:15;;;;;;;;;;;;;;;20.45;65.79;100946.03;4425394;32;19954;-67
2022/09/02 04:08:43;;;;;;;;;;;;;;;20.56;65.27;100942.53;4428154;32;19945;-69
2022/09/02 04:11:10;;;;;;;;;;;;;;;20.42;65.71;100943.38;4424485;32;19985;-68
2022/09/02 04:13:36;;;;;;;;;;;;;;;20.69;65.16;100935.13;4426959;32;19977;-67
2022/09/02 04:16:09;;;;;;;;;;;;;;;20.60;64.66;100938.16;4427013;32;19985;-67
2022/09/02 04:18:35;;;;;;;;;;;;;;;20.67;64.83;100929.13;4426273;32;21126;-68
2022/09/02 04:21:00;;;;;;;;;;;;;;;20.70;64.86;100930.97;4425467;32;19989;-68
2022/09/02 04:23:27;;;;;;;;;;;;;;;20.57;65.29;100922.00;4424575;32;20380;-67
2022/09/02 04:25:53;;;;;;;;;;;;;;;20.68;64.81;100919.25;4426565;32;19957;-67
2022/09/02 04:28:19;;;;;;;;;;;;;;;20.71;64.90;100918.25;4424985;32;20010;-68
2022/09/02 04:30:45;;;;;;;;;;;;;;;20.82;64.52;100914.72;4423870;32;19957;-69
2022/09/02 04:33:11;;;;;;;;;;;;;;;20.71;64.82;100921.09;4425233;32;19997;-67
2022/09/02 04:35:40;;;;;;;;;;;;;;;20.72;64.79;100916.19;4427110;32;20353;-67
2022/09/02 04:38:06;;;;;;;;;;;;;;;20.70;64.91;100919.53;4424266;32;19996;-67
2022/09/02 04:40:31;;;;;;;;;;;;;;;20.68;64.51;100919.25;4424954;32;20091;-68
2022/09/02 04:42:57;;;;;;;;;;;;;;;20.56;64.95;100914.69;4425165;32;19996;-68
2022/09/02 04:45:22;;;;;;;;;;;;;;;20.71;64.76;100914.63;4424925;32;19957;-67
2022/09/02 04:47:48;;;;;;;;;;;;;;;20.66;64.84;100919.00;4423866;32;20005;-68
2022/09/02 04:50:14;;;;;;;;;;;;;;;20.73;64.70;100917.75;4426732;32;20275;-68
2022/09/02 04:52:39;;;;;;;;;;;;;;;20.73;64.68;100914.87;4421178;32;19965;-67
2022/09/02 04:55:05;;;;;;;;;;;;;;;20.72;64.91;100919.84;4423763;32;20097;-69
2022/09/02 04:57:31;;;;;;;;;;;;;;;20.68;64.47;100921.34;4426920;32;20077;-67
2022/09/02 04:59:57;;;;;;;;;;;;;;;20.83;63.51;100924.87;4423857;32;20007;-68
2022/09/02 05:02:23;;;;;;;;;;;;;;;20.87;63.55;100925.44;4424097;32;20174;-67
2022/09/02 05:04:48;;;;;;;;;;;;;;;20.89;63.65;100922.88;4426013;32;20003;-67
2022/09/02 05:07:14;;;;;;;;;;;;;;;20.90;63.77;100922.31;4426400;32;19984;-68
2022/09/02 05:09:40;;;;;;;;;;;;;;;20.77;63.93;100919.09;4427670;32;19956;-67
2022/09/02 05:12:06;;;;;;;;;;;;;;;20.73;63.99;100915.66;4425049;32;19972;-67
2022/09/02 05:14:32;;;;;;;;;;;;;;;20.82;63.94;100914.72;4426858;32;20061;-67
2022/09/02 05:16:59;;;;;;;;;;;;;;;20.82;63.81;100909.00;4424545;32;19997;-67
2022/09/02 05:19:24;;;;;;;;;;;;;;;20.86;63.73;100915.28;4423075;32;20262;-67
2022/09/02 05:21:54;;;;;;;;;;;;;;;20.69;64.09;100911.47;4425162;32;20334;-67
2022/09/02 05:24:20;;;;;;;;;;;;;;;20.81;63.44;100901.72;4426246;32;19984;-67
2022/09/02 05:26:46;;;;;;;;;;;;;;;20.77;63.81;100919.09;4425691;32;19957;-67
2022/09/02 05:29:12;;;;;;;;;;;;;;;20.71;64.06;100908.91;4425406;32;20318;-67
2022/09/02 05:31:40;;;;;;;;;;;;;;;20.76;63.84;100913.88;4422830;32;20020;-69
2022/09/02 05:34:06;;;;;;;;;;;;;;;20.76;63.50;100911.00;4429037;32;20434;-68
2022/09/02 05:36:31;;;;;;;;;;;;;;;20.74;63.69;100905.03;4427063;32;19968;-67
2022/09/02 05:38:58;;;;;;;;;;;;;;;20.62;63.55;100912.69;4425132;32;20346;-67
2022/09/02 05:41:24;;;;;;;;;;;;;;;20.63;63.99;100911.41;4426267;32;20320;-66
2022/09/02 05:43:51;;;;;;;;;;;;;;;20.68;64.20;100901.31;4428269;32;20000;-67
2022/09/02 05:46:17;;;;;;;;;;;;;;;20.83;63.86;100902.75;4419242;32;19983;-66
2022/09/02 05:51:30;;;;;;;;;;;;;;;20.92;63.61;100901.78;4418019;32;19954;-68
2022/09/02 05:53:57;;;;;;;;;;;;;;;20.99;63.19;100904.25;4417504;32;19998;-67
2022/09/02 05:56:23;;;;;;;;;;;;;;;20.99;63.21;100902.16;4411636;32;20303;-67
2022/09/02 05:58:49;;;;;;;;;;;;;;;21.00;63.21;100895.16;4421428;32;20019;-67
2022/09/02 06:01:16;;;;;;;;;;;;;;;21.09;63.09;100905.63;4420321;32;20341;-67
2022/09/02 06:03:42;;;;;;;;;;;;;;;21.08;63.00;100901.97;4424236;32;19989;-67
2022/09/02 06:06:08;;;;;;;;;;;;;;;21.09;62.81;100905.63;4420391;32;20512;-68
2022/09/02 06:08:34;;;;;;;;;;;;;;;21.02;63.21;100900.38;4417508;32;19949;-67
2022/09/02 06:11:00;;;;;;;;;;;;;;;20.92;62.46;100902.59;4419796;32;19973;-68
2022/09/02 06:13:27;;;;;;;;;;;;;;;20.90;63.46;100907.25;4417995;32;20012;-67
2022/09/02 06:15:52;;;;;;;;;;;;;;;21.03;62.75;100911.31;4419726;32;20484;-67
2022/09/02 06:18:18;;;;;;;;;;;;;;;21.09;62.65;100905.63;4417586;32;19996;-68
2022/09/02 06:20:45;;;;;;;;;;;;;;;21.02;62.58;100906.88;4419232;32;19985;-68
2022/09/02 06:23:11;;;;;;;;;;;;;;;21.00;62.87;100900.88;4422165;32;19973;-68
2022/09/02 06:25:38;;;;;;;;;;;;;;;20.63;63.91;100899.97;4419557;32;20319;-67
2022/09/02 06:28:04;;;;;;;;;;;;;;;20.71;63.69;100900.31;4416522;32;20253;-67
2022/09/02 06:30:30;;;;;;;;;;;;;;;20.83;63.03;100896.28;4413660;32;20017;-67
2022/09/02 06:32:56;;;;;;;;;;;;;;;20.99;63.12;100899.28;4410954;32;19962;-67
2022/09/02 06:35:22;;;;;;;;;;;;;;;21.09;62.36;100894.19;4417785;32;20391;-67
2022/09/02 06:37:48;;;;;;;;;;;;;;;20.94;62.57;100893.50;4414151;32;19961;-67
2022/09/02 06:40:13;;;;;;;;;;;;;;;20.85;63.43;100894.47;4416974;32;20015;-67
2022/09/02 06:42:39;;;;;;;;;;;;;;;21.02;62.70;100906.09;4416086;32;20328;-67
2022/09/02 06:45:05;;;;;;;;;;;;;;;21.01;62.84;100899.59;4417725;32;20284;-67
2022/09/02 06:47:31;;;;;;;;;;;;;;;21.01;62.53;100901.66;4425479;32;19979;-68
2022/09/02 06:49:56;;;;;;;;;;;;;;;20.97;62.51;100901.09;4421025;32;20311;-68
2022/09/02 06:52:22;;;;;;;;;;;;;;;21.02;62.75;100900.38;4423473;32;20097;-68
2022/09/02 06:54:49;;;;;;;;;;;;;;;21.04;62.85;100904.28;4411961;32;20441;-67
2022/09/02 06:57:15;;;;;;;;;;;;;;;21.20;62.18;100882.84;4425443;32;19953;-67
2022/09/02 06:59:40;;;;;;;;;;;;;;;21.30;62.11;100887.06;4422344;32;20392;-68
2022/09/02 07:02:06;;;;;;;;;;;;;;;21.39;61.51;100893.38;4424932;32;20012;-68
2022/09/02 07:07:17;;;;;;;;;;;;;;;21.48;61.45;100881.72;4421527;32;19989;-67
2022/09/02 07:09:43;;;;;;;;;;;;;;;21.63;60.70;100885.22;4424223;32;19997;-68
2022/09/02 07:12:09;;;;;;;;;;;;;;;21.63;60.56;100881.56;4423194;32;20331;-67
2022/09/02 07:14:36;;;;;;;;;;;;;;;21.61;60.13;100879.22;4422301;32;19957;-68
2022/09/02 07:17:02;;;;;;;;;;;;;;;21.62;60.57;100871.41;4418240;32;20407;-67
2022/09/02 07:19:28;;;;;;;;;;;;;;;21.56;60.62;100877.09;4423414;32;20442;-68
2022/09/02 07:21:53;;;;;;;;;;;;;;;21.80;59.50;100867.34;4421585;32;20935;-69
2022/09/02 07:24:20;;;;;;;;;;;;;;;21.98;58.92;100873.44;4421002;32;19953;-68
2022/09/02 07:26:45;;;;;;;;;;;;;;;21.74;59.09;100866.53;4423043;32;19969;-68
2022/09/02 07:29:11;;;;;;;;;;;;;;;21.74;59.65;100860.81;4425236;32;19956;-68
2022/09/02 07:31:38;;;;;;;;;;;;;;;21.89;59.15;100867.13;4423288;32;20058;-68
2022/09/02 07:34:04;;;;;;;;;;;;;;;22.21;58.33;100863.63;4423449;32;20009;-69
2022/09/02 07:36:30;;;;;;;;;;;;;;;22.10;58.41;100866.47;4423361;32;19954;-68
2022/09/02 07:38:55;;;;;;;;;;;;;;;22.09;58.05;100873.47;4420554;32;20036;-69
2022/09/02 07:41:21;;;;;;;;;;;;;;;22.23;58.05;100865.97;4420047;32;20260;-68
2022/09/02 07:43:47;;;;;;;;;;;;;;;22.20;57.85;100862.06;4420885;32;20017;-69
2022/09/02 07:46:12;;;;;;;;;;;;;;;22.52;57.25;100860.59;4424780;32;20306;-68
2022/09/02 07:48:42;;;;;;;;;;;;;;;22.61;57.02;100856.72;4422110;32;19989;-68
2022/09/02 07:51:08;;;;;;;;;;;;;;;22.70;56.50;100854.37;4421631;32;19970;-67
2022/09/02 07:53:35;;;;;;;;;;;;;;;22.83;55.59;100856.75;4417840;32;20571;-67
2022/09/02 07:56:01;;;;;;;;;;;;;;;22.93;55.83;100855.19;4421194;32;19995;-67
2022/09/02 07:58:27;;;;;;;;;;;;;;;22.93;55.82;100855.97;4421489;32;20445;-67
2022/09/02 08:00:55;;;;;;;;;;;;;;;23.16;54.92;100848.13;4421313;32;19960;-67
2022/09/02 08:03:22;;;;;;;;;;;;;;;23.19;54.88;100839.25;4409664;32;20685;-67
2022/09/02 08:05:47;;;;;;;;;;;;;;;23.13;54.78;100849.16;4421023;32;19991;-68
2022/09/02 08:08:14;;;;;;;;;;;;;;;23.09;54.87;100842.91;4420763;32;19985;-67
2022/09/02 08:10:40;;;;;;;;;;;;;;;23.16;54.71;100846.03;4418736;32;19996;-67
2022/09/02 08:13:05;;;;;;;;;;;;;;;23.42;54.01;100842.91;4417148;32;20064;-67
2022/09/02 08:15:32;;;;;;;;;;;;;;;23.63;53.51;100837.63;4422010;32;19953;-68
2022/09/02 08:17:57;;;;;;;;;;;;;;;23.79;53.02;100837.59;4416964;32;20277;-67
2022/09/02 08:20:23;;;;;;;;;;;;;;;23.92;52.45;100846.41;4418015;32;20097;-68
2022/09/02 08:22:49;;;;;;;;;;;;;;;24.22;51.77;100844.47;4419342;32;19987;-68
2022/09/02 08:25:17;;;;;;;;;;;;;;;24.28;51.37;100847.31;4417680;32;19965;-68
2022/09/02 08:27:42;;;;;;;;;;;;;;;24.02;52.04;100844.81;4415004;32;19965;-68
2022/09/02 08:30:09;;;;;;;;;;;;;;;24.20;51.53;100841.34;4417346;32;20022;-68
2022/09/02 08:32:35;;;;;;;;;;;;;;;24.46;50.92;100827.34;4413943;32;20366;-67
2022/09/02 08:35:03;;;;;;;;;;;;;;;24.41;51.02;100830.22;4416366;32;20322;-67
2022/09/02 08:37:30;;;;;;;;;;;;;;;24.32;51.30;100828.47;4414045;32;20016;-67
2022/09/02 08:39:55;;;;;;;;;;;;;;;24.49;50.94;100834.13;4415562;32;20589;-67
2022/09/02 08:42:23;;;;;;;;;;;;;;;24.38;50.86;100826.34;4413298;32;19972;-68
2022/09/02 08:44:53;;;;;;;;;;;;;;;24.51;50.59;100835.12;4416275;32;20009;-68
2022/09/02 08:47:21;;;;;;;;;;;;;;;24.57;50.35;100832.22;4411942;32;20024;-68
2022/09/02 08:49:49;;;;;;;;;;;;;;;24.57;50.02;100832.22;4413700;32;19988;-68
2022/09/02 08:52:18;;;;;;;;;;;;;;;24.69;49.74;100836.59;4410580;32;20403;-68
2022/09/02 08:54:49;;;;;;;;;;;;;;;24.96;49.17;100827.78;4406183;32;20004;-67
2022/09/02 08:57:15;;;;;;;;;;;;;;;25.08;48.66;100828.44;4413133;32;19964;-68
2022/09/02 08:59:42;;;;;;;;;;;;;;;25.26;48.52;100827.75;4413160;32;19972;-67
2022/09/02 09:07:50;;;;;;;;;;;;;;;26.51;45.41;100826.00;3949242;32;15725587;-68
2022/09/02 09:10:35;;;;;;;;;;;;;;;26.51;45.41;100826.00;4424161;32;19983;-68
2022/09/02 09:18:16;;;;;;;;;;;;;;;27.06;44.69;100810.69;3951718;32;15723629;-68
2022/09/02 09:20:42;;;;;;;;;;;;;;;27.06;44.69;100810.69;4423320;32;20306;-68
2022/09/02 09:23:17;;;;;;;;;;;;;;;26.52;45.06;100813.91;4421301;32;19999;-67
2022/09/02 09:25:46;;;;;;;;;;;;;;;26.95;44.09;100807.97;4422862;32;20335;-67
2022/09/02 09:28:11;;;;;;;;;;;;;;;27.11;43.43;100807.69;4424023;32;19953;-67
2022/09/02 09:30:38;;;;;;;;;;;;;;;27.19;43.32;100794.13;4421531;32;20427;-67
2022/09/02 09:33:04;;;;;;;;;;;;;;;27.39;43.33;100795.63;4421795;32;19999;-67
2022/09/02 09:35:50;;;;;;;;;;;;;;;27.65;42.49;100789.87;4424671;32;19954;-69
2022/09/02 09:38:27;;;;;;;;;;;;;;;28.20;41.70;100782.91;4423139;32;19970;-69
2022/09/02 09:41:09;;;;;;;;;;;;;;;28.51;40.89;100795.66;4419028;32;20332;-70
2022/09/02 09:43:34;;;;;;;;;;;;;;;28.13;nan;100785.72;4420730;32;20459;-69
2022/09/02 09:46:18;;;;;;;;;;;;;;;28.13;41.11;100772.00;4420710;32;19972;-69
2022/09/02 09:48:48;;;;;;;;;;;;;;;27.27;43.00;100768.28;4424000;32;20276;-69
2022/09/02 09:51:14;;;;;;;;;;;;;;;27.69;42.38;100769.28;4421551;32;19966;-69
2022/09/02 09:53:40;;;;;;;;;;;;;;;27.87;41.88;100774.97;4420481;32;20142;-69
2022/09/02 09:56:19;;;;;;;;;;;;;;;28.17;41.42;100769.56;4423460;32;20727;-69
2022/09/02 09:58:46;;;;;;;;;;;;;;;28.47;40.76;100772.81;4423059;32;20004;-68
2022/09/02 10:03:51;;;;;;;;;;;;;;;28.55;40.91;100764.22;3949261;32;15721644;-69
2022/09/02 10:06:19;;;;;;;;;;;;;;;28.55;40.91;100764.22;4434264;32;19965;-70
2022/09/02 10:08:52;;;;;;;;;;;;;;;28.13;40.93;100765.47;4429678;32;19987;-68
2022/09/02 10:11:19;;;;;;;;;;;;;;;28.28;40.54;100757.72;4431516;32;20650;-68
2022/09/02 10:13:45;;;;;;;;;;;;;;;28.48;40.21;100757.03;4434892;32;20365;-69
2022/09/02 10:16:30;;;;;;;;;;;;;;;28.71;39.76;100749.31;4432276;32;20052;-69
2022/09/02 10:19:16;;;;;;;;;;;;;;;29.09;39.22;100751.78;4433694;32;20359;-68
2022/09/02 10:22:01;;;;;;;;;;;;;;;29.08;38.73;100747.34;4432100;32;20008;-69
2022/09/02 10:24:36;;;;;;;;;;;;;;;28.96;38.98;100743.94;4431328;32;19954;-67
2022/09/02 10:27:05;;;;;;;;;;;;;;;28.96;39.07;100738.16;4430495;32;19992;-68
2022/09/02 10:37:20;;;;;;;;;;;;;;;28.18;40.67;100732.72;3941620;32;15723550;-68
2022/09/02 10:40:05;;;;;;;;;;;;;;;28.18;40.67;100732.72;4414072;32;20004;-69
2022/09/02 10:45:13;;;;;;;;;;;;;;;28.92;38.77;100729.81;3949658;32;15728593;-70
2022/09/02 10:47:39;;;;;;;;;;;;;;;28.88;38.32;100719.94;4429500;32;20358;-70
2022/09/02 10:55:27;;;;;;;;;;;;;;;29.76;36.86;100723.25;3947642;32;15723578;-69
2022/09/02 10:57:59;;;;;;;;;;;;;;;29.76;36.86;100723.25;4423930;32;20393;-70
2022/09/02 11:00:27;;;;;;;;;;;;;;;29.54;36.41;100720.97;4426145;32;19981;-69
2022/09/02 11:03:06;;;;;;;;;;;;;;;30.04;35.68;100717.38;4424999;32;20039;-69
2022/09/02 11:08:27;;;;;;;;;;;;;;;32.45;31.43;100705.44;3950849;32;15791476;-70
2022/09/02 11:10:59;;;;;;;;;;;;;;;32.45;31.43;100705.44;4430548;32;19972;-69
2022/09/02 11:13:37;;;;;;;;;;;;;;;32.82;30.31;100710.19;4430838;32;20194;-69
2022/09/02 11:16:12;;;;;;;;;;;;;;;33.68;29.44;100711.91;4432917;32;20298;-69
2022/09/02 11:21:37;;;;;;;;;;;;;;;32.99;29.90;100703.69;3960132;32;15723603;-68
2022/09/02 11:24:05;;;;;;;;;;;;;;;32.99;29.90;100703.69;4447743;32;20022;-68
2022/09/02 11:31:46;;;;;;;;;;;;;;;31.76;32.39;100685.97;3948169;31;15719438;-68
2022/09/02 11:34:33;;;;;;;;;;;;;;;31.76;32.39;100685.97;4425650;32;19997;-67
2022/09/02 11:37:02;;;;;;;;;;;;;;;31.81;32.01;100671.22;4425032;32;20659;-68
2022/09/02 11:42:11;;;;;;;;;;;;;;;32.71;30.09;100660.37;3953303;32;15727306;-69
2022/09/02 11:47:30;;;;;;;;;;;;;;;32.96;29.92;100658.22;3962265;32;15724156;-68
2022/09/02 11:50:15;;;;;;;;;;;;;;;32.96;29.92;100658.22;4442740;32;19969;-67
2022/09/02 11:55:23;;;;;;;;;;;;;;;32.59;30.06;100642.59;3951226;31;15717784;-70
2022/09/02 11:57:53;;;;;;;;;;;;;;;33.30;29.04;100644.44;4433882;32;20000;-69
2022/09/02 12:00:38;;;;;;;;;;;;;;;33.42;28.79;100633.03;4430536;32;19957;-69
2022/09/02 12:05:44;;;;;;;;;;;;;;;35.14;26.78;100637.63;3950432;32;15730421;-70
2022/09/02 12:08:11;;;;;;;;;;;;;;;35.14;26.78;100637.63;4428167;32;20343;-70
2022/09/02 12:21:26;;;;;;;;;;;;;;;36.40;23.59;100623.78;3950663;32;15723414;-68
2022/09/02 12:31:47;;;;;;;;;;;;;;;36.27;24.20;100606.69;3947864;32;15722417;-69
2022/09/02 12:36:57;;;;;;;;;;;;;;;36.00;24.03;100604.03;3949568;32;15725431;-68
2022/09/02 12:42:17;;;;;;;;;;;;;;;36.18;23.49;100602.41;3947271;32;15722330;-68
2022/09/02 12:45:03;;;;;;;;;;;;;;;36.18;23.49;100602.41;4427919;32;19990;-68
2022/09/02 12:47:48;;;;;;;;;;;;;;;35.99;23.74;100590.75;4429572;32;19957;-67
2022/09/02 12:53:07;;;;;;;;;;;;;;;36.13;23.62;100585.16;3976588;32;15727506;-68
2022/09/02 12:55:33;;;;;;;;;;;;;;;36.13;23.62;100585.16;4462719;32;19996;-70
2022/09/02 13:03:37;;;;;;;;;;;;;;;35.98;23.46;100573.78;3948384;32;15723546;-66
2022/09/02 13:11:42;;;;;;;;;;;;;;;35.36;24.32;100572.81;3948532;32;15724316;-67
2022/09/02 13:16:53;;;;;;;;;;;;;;;35.26;23.36;100565.13;3948489;32;15724593;-68
2022/09/02 13:19:39;;;;;;;;;;;;;;;35.27;23.37;100564.78;4431667;32;20004;-69
2022/09/02 13:24:56;;;;;;;;;;;;;;;36.73;21.91;100554.31;3936409;32;15723271;-68
2022/09/02 13:32:58;;;;;;;;;;;;;;;39.00;19.28;100548.72;3949259;32;15725638;-69
2022/09/02 13:35:25;;;;;;;;;;;;;;;39.00;19.28;100548.72;4414641;32;20009;-68
2022/09/02 13:37:58;;;;;;;;;;;;;;;38.60;19.78;100544.06;4424830;32;20414;-69
2022/09/02 13:40:26;;;;;;;;;;;;;;;37.78;20.83;100545.41;4426102;32;20027;-69
2022/09/02 13:42:53;;;;;;;;;;;;;;;37.09;21.92;100544.34;4424360;32;20423;-68
2022/09/02 13:45:20;;;;;;;;;;;;;;;36.48;22.73;100536.44;4424171;32;20990;-70
2022/09/02 13:47:49;;;;;;;;;;;;;;;35.89;23.26;100528.50;4425606;32;20005;-70
2022/09/02 13:50:17;;;;;;;;;;;;;;;35.77;23.40;100530.50;4425342;32;20008;-68
2022/09/02 13:52:44;;;;;;;;;;;;;;;35.31;23.52;100523.38;4426606;32;19966;-68
2022/09/02 13:55:11;;;;;;;;;;;;;;;34.24;24.01;100523.81;4429597;32;19997;-68
2022/09/02 13:57:37;;;;;;;;;;;;;;;33.83;24.59;100512.41;4429989;32;20029;-69
2022/09/02 14:00:04;;;;;;;;;;;;;;;33.74;24.85;100510.22;4429117;32;19962;-68
2022/09/02 14:02:31;;;;;;;;;;;;;;;33.73;23.66;100506.53;4427887;32;19989;-68
2022/09/02 14:05:00;;;;;;;;;;;;;;;33.16;24.49;100500.31;4431273;32;19957;-69
2022/09/02 14:07:29;;;;;;;;;;;;;;;33.01;25.46;100503.41;4425414;32;19991;-69
2022/09/02 14:09:57;;;;;;;;;;;;;;;32.93;26.02;100496.94;4429312;32;19972;-68
2022/09/02 14:12:24;;;;;;;;;;;;;;;32.98;26.50;100490.06;4424262;32;20013;-69
2022/09/02 14:14:49;;;;;;;;;;;;;;;33.22;26.40;100492.06;4428739;32;19953;-69
2022/09/02 14:17:16;;;;;;;;;;;;;;;32.73;27.00;100492.25;4425932;32;20041;-68
2022/09/02 14:19:42;;;;;;;;;;;;;;;32.43;27.61;100490.44;4427222;32;19950;-69
2022/09/02 14:22:18;;;;;;;;;;;;;;;32.25;27.75;100480.13;4425684;32;20342;-68
2022/09/02 14:24:44;;;;;;;;;;;;;;;32.16;27.24;100474.19;4428019;32;20307;-67
2022/09/02 14:27:19;;;;;;;;;;;;;;;32.22;27.77;100466.78;4425789;32;20307;-69